Time;durP1;ratioP1;P1;durP2;ratioP2;P2;SDS_P1;SDS_P2;PMS_P1;PMS_P2;Temp;Humidity;BMP_temperature;BMP_pressure;BME280_temperature;BME280_humidity;BME280_pressure;Samples;Min_cycle;Max_cycle;Signal;HPM_P1;HPM_P2
2021/08/19 00:00:43;;;;;;;0.97;0.93;;;17.50;99.90;;;;;;6031676;23;21196;-91
2021/08/19 00:03:10;;;;;;;1.20;1.10;;;17.50;99.90;;;;;;6032141;23;21063;-91
2021/08/19 00:05:36;;;;;;;2.73;1.13;;;17.50;99.90;;;;;;6031880;23;20587;-91
2021/08/19 00:08:04;;;;;;;1.03;0.90;;;17.60;99.90;;;;;;6031214;23;20594;-92
2021/08/19 00:10:31;;;;;;;1.27;1.10;;;17.50;99.90;;;;;;6031458;23;20638;-92
2021/08/19 00:12:59;;;;;;;4.60;1.30;;;17.60;99.90;;;;;;6031860;23;20564;-92
2021/08/19 00:15:25;;;;;;;1.10;1.00;;;17.60;99.90;;;;;;6032097;23;20596;-91
2021/08/19 00:17:54;;;;;;;1.20;0.70;;;17.60;99.90;;;;;;6031057;23;20602;-94
2021/08/19 00:20:21;;;;;;;1.00;1.00;;;17.60;99.90;;;;;;6032389;23;20935;-94
2021/08/19 00:22:48;;;;;;;1.93;0.83;;;17.50;99.90;;;;;;6031696;23;20630;-93
2021/08/19 00:25:15;;;;;;;3.00;1.20;;;17.40;99.90;;;;;;6032166;23;20690;-94
2021/08/19 00:27:42;;;;;;;2.37;1.07;;;17.50;99.90;;;;;;6031491;23;20682;-93
2021/08/19 00:30:10;;;;;;;1.80;0.97;;;17.40;99.90;;;;;;6031664;23;20632;-93
2021/08/19 00:32:37;;;;;;;0.80;0.80;;;17.40;99.90;;;;;;6032463;23;20552;-92
2021/08/19 00:35:06;;;;;;;0.77;0.77;;;17.50;99.90;;;;;;6032514;23;21130;-94
2021/08/19 00:37:33;;;;;;;0.87;0.87;;;17.50;99.90;;;;;;6031216;23;21129;-94
2021/08/19 00:40:00;;;;;;;1.07;0.80;;;17.50;99.90;;;;;;6033036;23;20636;-94
2021/08/19 00:42:27;;;;;;;2.13;1.30;;;17.50;99.90;;;;;;6031599;23;20632;-94
2021/08/19 00:44:54;;;;;;;0.97;0.80;;;17.40;99.90;;;;;;6008726;23;20592;-94
2021/08/19 00:47:21;;;;;;;2.50;1.20;;;17.30;99.90;;;;;;6007130;23;20602;-94
2021/08/19 00:49:48;;;;;;;1.10;1.10;;;17.30;99.90;;;;;;6032625;23;20616;-95
2021/08/19 00:52:16;;;;;;;1.13;0.70;;;17.30;99.90;;;;;;5983516;23;21093;-95
2021/08/19 00:54:44;;;;;;;1.63;1.53;;;17.40;99.90;;;;;;6008030;23;20572;-94
2021/08/19 00:57:12;;;;;;;1.57;0.93;;;17.40;99.90;;;;;;6031663;23;21187;-94
2021/08/19 00:59:40;;;;;;;2.63;0.97;;;17.40;99.90;;;;;;6031982;23;21197;-94
2021/08/19 01:02:08;;;;;;;5.00;0.87;;;17.50;99.90;;;;;;6032555;23;20628;-95
2021/08/19 01:04:37;;;;;;;1.90;0.93;;;17.50;99.90;;;;;;6032347;23;20689;-95
2021/08/19 01:07:06;;;;;;;2.40;1.00;;;17.40;99.90;;;;;;6032148;23;20668;-94
2021/08/19 01:09:35;;;;;;;2.17;0.80;;;17.50;99.90;;;;;;6031319;23;20640;-94
2021/08/19 01:12:04;;;;;;;1.37;0.90;;;17.40;99.90;;;;;;6032830;23;20675;-95
2021/08/19 01:14:32;;;;;;;1.87;1.40;;;17.30;99.90;;;;;;6007932;23;20624;-95
2021/08/19 01:16:59;;;;;;;1.83;1.10;;;17.20;99.90;;;;;;6033399;23;20599;-94
2021/08/19 01:19:26;;;;;;;1.13;0.70;;;17.10;99.90;;;;;;6031563;23;20619;-93
2021/08/19 01:21:53;;;;;;;1.20;1.10;;;17.10;99.90;;;;;;6031996;23;20638;-93
2021/08/19 01:24:21;;;;;;;1.10;0.87;;;17.40;99.90;;;;;;6033395;23;20873;-95
2021/08/19 01:26:50;;;;;;;3.40;0.90;;;17.40;99.90;;;;;;6034797;23;20917;-95
2021/08/19 01:29:18;;;;;;;1.90;1.37;;;17.30;99.90;;;;;;6033641;23;20572;-95
2021/08/19 01:31:57;;;;;;;1.50;1.40;;;17.30;99.90;;;;;;6036062;23;20607;-95
2021/08/19 01:34:24;;;;;;;1.80;0.97;;;17.60;99.90;;;;;;6036131;23;20619;-95
2021/08/19 01:36:52;;;;;;;2.03;0.93;;;17.60;99.90;;;;;;6035519;23;20568;-93
2021/08/19 01:39:19;;;;;;;1.03;0.90;;;17.90;99.90;;;;;;6033179;23;20599;-94
2021/08/19 01:41:46;;;;;;;5.60;1.77;;;17.90;99.90;;;;;;6034060;23;20672;-95
2021/08/19 01:44:14;;;;;;;1.90;1.50;;;18.00;99.90;;;;;;6034340;23;20604;-95
2021/08/19 01:46:42;;;;;;;2.00;1.80;;;17.70;99.90;;;;;;6035302;23;20588;-94
2021/08/19 01:49:09;;;;;;;1.20;0.73;;;17.50;99.90;;;;;;6045060;23;20647;-94
2021/08/19 01:51:36;;;;;;;3.17;1.40;;;17.60;99.90;;;;;;6036969;23;20812;-95
2021/08/19 01:54:03;;;;;;;1.37;1.27;;;17.70;99.90;;;;;;6011969;23;20604;-95
2021/08/19 01:56:30;;;;;;;3.90;1.53;;;17.90;99.90;;;;;;6033259;23;20579;-94
2021/08/19 01:58:58;;;;;;;1.67;1.50;;;17.80;99.90;;;;;;6033753;23;21110;-95
2021/08/19 02:01:26;;;;;;;3.30;2.00;;;17.70;99.90;;;;;;6014645;23;20579;-94
2021/08/19 02:03:55;;;;;;;1.23;1.13;;;17.80;99.90;;;;;;6035902;23;21165;-95
2021/08/19 02:06:22;;;;;;;1.63;1.53;;;18.00;99.90;;;;;;6034812;23;20928;-94
2021/08/19 02:08:50;;;;;;;4.70;1.73;;;17.80;99.90;;;;;;6033307;23;20570;-95
2021/08/19 02:11:17;;;;;;;2.70;1.50;;;17.60;99.90;;;;;;6034576;23;20631;-95
2021/08/19 02:13:44;;;;;;;2.23;1.40;;;17.40;99.90;;;;;;6031050;23;20619;-94
2021/08/19 02:16:11;;;;;;;2.80;1.60;;;17.60;99.90;;;;;;6027936;23;20626;-94
2021/08/19 02:18:38;;;;;;;1.07;0.97;;;17.40;99.90;;;;;;6030464;23;20620;-94
2021/08/19 02:21:07;;;;;;;1.97;1.10;;;17.50;99.90;;;;;;6008592;23;20671;-94
2021/08/19 02:23:33;;;;;;;1.53;1.40;;;17.60;99.90;;;;;;6033473;23;20965;-94
2021/08/19 02:26:00;;;;;;;1.50;1.23;;;17.50;99.90;;;;;;6034024;23;20587;-95
2021/08/19 02:28:27;;;;;;;1.30;1.20;;;17.50;99.90;;;;;;6007660;23;20924;-94
2021/08/19 02:30:54;;;;;;;1.50;1.40;;;17.60;99.90;;;;;;6034525;23;20614;-93
2021/08/19 02:33:21;;;;;;;3.20;1.27;;;17.70;99.90;;;;;;6007455;23;20608;-95
2021/08/19 02:35:48;;;;;;;1.40;1.30;;;17.50;99.90;;;;;;6032810;23;21117;-95
2021/08/19 02:38:16;;;;;;;1.30;1.20;;;17.30;99.90;;;;;;6005651;23;20914;-94
2021/08/19 02:40:43;;;;;;;1.57;1.47;;;17.30;99.90;;;;;;6033862;23;20584;-94
2021/08/19 02:43:10;;;;;;;1.30;1.20;;;17.20;99.90;;;;;;6032527;23;20643;-94
2021/08/19 02:45:38;;;;;;;1.30;1.20;;;17.20;99.90;;;;;;6033533;23;20592;-94
2021/08/19 02:48:05;;;;;;;1.73;1.20;;;17.20;99.90;;;;;;6033688;23;20634;-94
2021/08/19 02:50:32;;;;;;;1.30;1.20;;;17.40;99.90;;;;;;6008909;23;20993;-94
2021/08/19 02:52:59;;;;;;;1.73;1.60;;;17.20;99.90;;;;;;6033475;23;20576;-94
2021/08/19 02:55:27;;;;;;;1.60;1.50;;;17.10;99.90;;;;;;6031911;23;21077;-94
2021/08/19 02:57:54;;;;;;;1.97;1.50;;;17.10;99.90;;;;;;6026450;23;21137;-94
2021/08/19 03:00:21;;;;;;;3.67;1.33;;;17.10;99.90;;;;;;6031926;23;20592;-94
2021/08/19 03:02:48;;;;;;;2.40;1.30;;;17.20;99.90;;;;;;6032887;23;20615;-94
2021/08/19 03:05:15;;;;;;;1.50;1.40;;;17.30;99.90;;;;;;6034727;23;20824;-95
2021/08/19 03:07:42;;;;;;;1.97;1.30;;;17.30;99.90;;;;;;6034602;23;20679;-95
2021/08/19 03:10:09;;;;;;;1.40;1.27;;;17.20;99.90;;;;;;6035202;23;20627;-95
2021/08/19 03:12:38;;;;;;;1.30;1.20;;;17.20;99.90;;;;;;6034647;23;20600;-95
2021/08/19 03:15:06;;;;;;;1.67;1.50;;;17.30;99.90;;;;;;6034667;23;20711;-95
2021/08/19 03:17:33;;;;;;;1.67;1.57;;;17.10;99.90;;;;;;6034924;23;20584;-95
2021/08/19 03:20:01;;;;;;;1.60;1.37;;;17.20;99.90;;;;;;6034900;23;21180;-95
2021/08/19 03:22:28;;;;;;;1.77;1.67;;;17.20;99.90;;;;;;6033564;23;21236;-94
2021/08/19 03:24:55;;;;;;;1.80;1.60;;;17.20;99.90;;;;;;6029781;23;20650;-92
2021/08/19 03:27:22;;;;;;;2.07;1.37;;;17.10;99.90;;;;;;6026367;23;20898;-93
2021/08/19 03:29:51;;;;;;;1.40;1.30;;;17.10;99.90;;;;;;6028734;23;20986;-92
2021/08/19 03:32:17;;;;;;;1.50;1.40;;;17.50;99.90;;;;;;6032857;23;20593;-93
2021/08/19 03:34:44;;;;;;;1.50;1.40;;;17.10;99.90;;;;;;6009732;23;20620;-94
2021/08/19 03:37:11;;;;;;;4.90;1.50;;;17.30;99.90;;;;;;6032636;23;20592;-92
2021/08/19 03:39:38;;;;;;;2.10;1.60;;;17.20;99.90;;;;;;6031652;23;20588;-93
2021/08/19 03:42:06;;;;;;;1.63;1.20;;;17.60;99.90;;;;;;6032362;23;20622;-93
2021/08/19 03:44:32;;;;;;;1.50;1.40;;;17.50;99.90;;;;;;6032524;23;20711;-92
2021/08/19 03:47:01;;;;;;;3.60;1.30;;;17.60;99.90;;;;;;6031750;23;20676;-91
2021/08/19 03:49:28;;;;;;;1.60;1.50;;;17.30;99.90;;;;;;6032069;23;20596;-93
2021/08/19 03:51:55;;;;;;;1.30;1.20;;;17.10;99.90;;;;;;6032607;23;20573;-93
2021/08/19 03:54:22;;;;;;;1.30;1.20;;;17.00;99.90;;;;;;6032206;23;20850;-92
2021/08/19 03:56:50;;;;;;;1.57;1.20;;;17.10;99.90;;;;;;6031441;23;20608;-92
2021/08/19 03:59:17;;;;;;;1.50;1.27;;;17.20;99.90;;;;;;6031583;23;20650;-92
2021/08/19 04:01:44;;;;;;;2.60;1.50;;;17.10;99.90;;;;;;6032277;23;20564;-91
2021/08/19 04:04:17;;;;;;;2.53;1.30;;;17.40;99.90;;;;;;6032364;23;20624;-92
2021/08/19 04:06:44;;;;;;;1.60;1.50;;;17.40;99.90;;;;;;6032763;23;20556;-92
2021/08/19 04:09:11;;;;;;;2.80;1.70;;;17.30;99.90;;;;;;6002285;23;21164;-93
2021/08/19 04:11:37;;;;;;;1.40;1.30;;;17.30;99.90;;;;;;6026031;23;20599;-92
2021/08/19 04:14:04;;;;;;;1.63;1.53;;;17.20;99.90;;;;;;6031003;23;20733;-92
2021/08/19 04:16:31;;;;;;;1.50;1.40;;;17.10;99.90;;;;;;6029504;23;20912;-92
2021/08/19 04:18:58;;;;;;;2.10;1.40;;;17.10;99.90;;;;;;6034320;23;20605;-92
2021/08/19 04:21:26;;;;;;;1.53;1.30;;;17.10;99.90;;;;;;6037187;23;20602;-91
2021/08/19 04:23:53;;;;;;;3.70;1.63;;;17.10;99.90;;;;;;6037139;23;20636;-91
2021/08/19 04:26:20;;;;;;;1.67;1.57;;;17.30;99.90;;;;;;6032636;23;20662;-91
2021/08/19 04:28:47;;;;;;;1.23;1.13;;;16.90;99.90;;;;;;6034342;23;20549;-90
2021/08/19 04:31:14;;;;;;;5.63;1.40;;;16.90;99.90;;;;;;6034401;23;20855;-90
2021/08/19 04:33:41;;;;;;;2.80;1.63;;;17.00;99.90;;;;;;6032119;23;21267;-90
2021/08/19 04:36:08;;;;;;;1.63;1.50;;;16.90;99.90;;;;;;6031998;23;20655;-90
2021/08/19 04:38:36;;;;;;;1.77;1.67;;;16.90;99.90;;;;;;6031611;23;20568;-90
2021/08/19 04:41:03;;;;;;;1.40;1.30;;;17.00;99.90;;;;;;6026375;23;20529;-90
2021/08/19 04:43:30;;;;;;;1.77;1.30;;;17.10;99.90;;;;;;6030269;23;21016;-91
2021/08/19 04:45:57;;;;;;;2.00;1.90;;;17.00;99.90;;;;;;6006787;23;20643;-91
2021/08/19 04:48:24;;;;;;;2.33;1.53;;;16.90;99.90;;;;;;6030426;23;21121;-90
2021/08/19 04:50:51;;;;;;;1.80;1.70;;;17.00;99.90;;;;;;6032072;23;21069;-90
2021/08/19 04:53:19;;;;;;;2.23;2.03;;;17.00;99.90;;;;;;6032026;23;20965;-90
2021/08/19 04:55:47;;;;;;;1.90;1.70;;;17.00;99.90;;;;;;6030681;23;21418;-90
2021/08/19 04:58:15;;;;;;;3.23;1.43;;;17.00;99.90;;;;;;6030671;23;21116;-90
2021/08/19 05:00:42;;;;;;;1.50;1.40;;;17.00;99.90;;;;;;6031900;23;20588;-89
2021/08/19 05:03:08;;;;;;;1.80;1.70;;;17.00;99.90;;;;;;6030207;23;20598;-89
2021/08/19 05:05:35;;;;;;;2.03;1.47;;;17.00;99.90;;;;;;6031408;23;20663;-89
2021/08/19 05:08:02;;;;;;;2.50;1.53;;;17.10;99.90;;;;;;6030621;23;20622;-89
2021/08/19 05:10:29;;;;;;;2.57;1.70;;;17.20;99.90;;;;;;6029832;23;20670;-89
2021/08/19 05:12:57;;;;;;;1.63;1.53;;;17.20;99.90;;;;;;6031914;23;20592;-89
2021/08/19 05:15:24;;;;;;;8.60;2.00;;;17.10;99.90;;;;;;6006895;23;20936;-90
2021/08/19 05:17:52;;;;;;;3.03;1.80;;;17.10;99.90;;;;;;6029969;23;20631;-89
2021/08/19 05:20:19;;;;;;;2.20;1.63;;;17.00;99.90;;;;;;6031611;23;21105;-90
2021/08/19 05:22:45;;;;;;;1.37;1.27;;;17.00;99.90;;;;;;6025874;23;21017;-90
2021/08/19 05:25:12;;;;;;;1.97;1.77;;;17.00;99.90;;;;;;6025820;23;20607;-90
2021/08/19 05:27:39;;;;;;;1.93;1.43;;;17.00;99.90;;;;;;6026954;23;20647;-91
2021/08/19 05:30:09;;;;;;;3.10;1.83;;;17.00;99.90;;;;;;6032216;23;20568;-90
2021/08/19 05:32:36;;;;;;;1.70;1.60;;;17.00;99.90;;;;;;6031298;23;20592;-91
2021/08/19 05:35:03;;;;;;;2.20;1.57;;;17.00;99.90;;;;;;6032231;23;20994;-92
2021/08/19 05:37:30;;;;;;;2.10;1.60;;;17.00;99.90;;;;;;6030329;23;20929;-90
2021/08/19 05:39:57;;;;;;;1.83;1.60;;;17.00;99.90;;;;;;6032185;23;20639;-91
2021/08/19 05:42:26;;;;;;;1.60;1.50;;;17.10;99.90;;;;;;6032926;23;20627;-90
2021/08/19 05:44:53;;;;;;;1.60;1.10;;;17.20;99.90;;;;;;6032569;23;20615;-92
2021/08/19 05:47:24;;;;;;;1.83;1.50;;;17.30;99.90;;;;;;6034112;23;20560;-91
2021/08/19 05:49:51;;;;;;;1.60;1.50;;;17.30;99.90;;;;;;6032173;23;20517;-92
2021/08/19 05:52:18;;;;;;;1.60;1.50;;;17.20;99.90;;;;;;6026491;23;21163;-92
2021/08/19 05:54:47;;;;;;;1.57;1.20;;;17.20;99.90;;;;;;6031039;23;20643;-92
2021/08/19 05:57:16;;;;;;;1.70;1.60;;;17.20;99.90;;;;;;6028803;23;20616;-92
2021/08/19 05:59:44;;;;;;;8.20;1.60;;;17.20;99.90;;;;;;6007259;23;20557;-92
2021/08/19 06:02:11;;;;;;;1.73;1.30;;;17.10;99.90;;;;;;6031093;23;20610;-92
2021/08/19 06:04:51;;;;;;;2.27;1.43;;;17.20;99.90;;;;;;6031386;23;21058;-92
2021/08/19 06:07:18;;;;;;;1.73;1.63;;;17.20;99.90;;;;;;6031504;23;21117;-92
2021/08/19 06:09:45;;;;;;;1.50;1.33;;;17.20;99.90;;;;;;6006781;23;20675;-91
2021/08/19 06:12:23;;;;;;;2.13;1.43;;;17.30;99.90;;;;;;6030611;23;20631;-91
2021/08/19 06:14:53;;;;;;;4.00;1.57;;;17.20;99.90;;;;;;6031658;23;20610;-92
2021/08/19 06:17:20;;;;;;;1.50;1.40;;;17.30;99.90;;;;;;6032120;23;20623;-91
2021/08/19 06:19:49;;;;;;;1.60;1.47;;;17.40;99.90;;;;;;6033247;23;21144;-91
2021/08/19 06:22:17;;;;;;;1.77;1.67;;;17.40;99.90;;;;;;6033119;23;20588;-92
2021/08/19 06:24:44;;;;;;;2.40;1.43;;;17.40;99.90;;;;;;6032578;23;20723;-93
2021/08/19 06:27:13;;;;;;;3.93;1.87;;;17.40;99.90;;;;;;6032106;23;20591;-91
2021/08/19 06:29:42;;;;;;;1.60;1.50;;;17.40;99.90;;;;;;6033101;23;20599;-93
2021/08/19 06:32:08;;;;;;;2.23;1.50;;;17.50;99.90;;;;;;6032816;23;20623;-92
2021/08/19 06:34:35;;;;;;;1.80;1.27;;;17.60;99.90;;;;;;6027253;23;21053;-91
2021/08/19 06:37:10;;;;;;;3.37;1.87;;;17.60;99.90;;;;;;6032610;23;20875;-93
2021/08/19 06:39:36;;;;;;;3.10;1.43;;;17.70;99.90;;;;;;6032824;23;20590;-92
2021/08/19 06:42:04;;;;;;;1.60;1.33;;;17.90;99.90;;;;;;6032264;23;20568;-92
2021/08/19 06:44:31;;;;;;;2.53;1.63;;;17.90;99.90;;;;;;6033589;23;20631;-92
2021/08/19 06:46:58;;;;;;;2.13;1.60;;;17.80;99.90;;;;;;6034031;23;20682;-94
2021/08/19 06:49:25;;;;;;;4.07;1.50;;;18.00;99.90;;;;;;6032399;23;20592;-93
2021/08/19 06:51:52;;;;;;;1.50;1.23;;;18.10;99.90;;;;;;6032874;23;20627;-92
2021/08/19 06:54:20;;;;;;;4.07;1.70;;;18.10;99.90;;;;;;6033250;23;20619;-92
2021/08/19 06:56:47;;;;;;;2.10;1.73;;;18.20;99.90;;;;;;6033070;23;20594;-93
2021/08/19 06:59:16;;;;;;;1.80;1.70;;;18.30;99.90;;;;;;6034913;23;20631;-92
2021/08/19 07:01:43;;;;;;;3.00;2.20;;;18.30;99.90;;;;;;6034225;23;20572;-92
2021/08/19 07:04:10;;;;;;;1.70;1.60;;;18.40;99.90;;;;;;6032064;23;21008;-91
2021/08/19 07:24:06;;;;;;;;;;;;;;;;;;;;;
2021/08/19 07:27:19;;;;;;;;;;;;;;;;;;;;;
2021/08/19 07:33:29;;;;;;;4.50;1.73;;;20.00;99.90;;;;;;5891575;24;20595;-91
2021/08/19 07:36:41;;;;;;;1.60;1.17;;;20.40;99.90;;;;;;5920194;24;20590;-91
2021/08/19 08:03:05;;;;;;;15.57;2.60;;;21.50;99.90;;;;;;5080538;27;21294;-86
2021/08/19 08:05:34;;;;;;;5.20;1.90;;;22.10;99.90;;;;;;5076275;28;20643;-87
2021/08/19 08:08:03;;;;;;;3.93;2.00;;;22.20;99.90;;;;;;5076858;28;20630;-87
2021/08/19 08:10:30;;;;;;;1.87;1.70;;;22.20;99.90;;;;;;5082518;28;20621;-87
2021/08/19 08:12:59;;;;;;;2.77;1.27;;;21.60;99.90;;;;;;5081111;28;20699;-87
2021/08/19 08:15:27;;;;;;;1.87;1.67;;;21.30;99.90;;;;;;5084616;28;20618;-88
2021/08/19 08:17:54;;;;;;;3.87;1.63;;;21.40;99.90;;;;;;5087343;28;20597;-87
2021/08/19 20:04:21;;;;;;;3.00;2.77;;;18.50;99.90;;;;;;6131842;22;20596;31
2021/08/19 20:06:49;;;;;;;4.27;3.07;;;18.50;99.90;;;;;;5153394;23;20762;-95
2021/08/19 20:09:19;;;;;;;3.87;2.57;;;18.50;99.90;;;;;;5025667;28;20622;-94
2021/08/19 20:11:45;;;;;;;2.60;2.17;;;18.50;99.90;;;;;;5021911;28;20654;-93
2021/08/19 20:14:12;;;;;;;2.40;2.20;;;18.50;99.90;;;;;;5023487;28;20698;-93
2021/08/19 20:16:39;;;;;;;2.90;2.00;;;18.50;99.90;;;;;;5004692;28;20690;-92
2021/08/19 23:23:42;;;;;;;3.50;2.33;;;17.20;99.90;;;;;;5050331;28;20658;-96
2021/08/19 23:51:00;;;;;;;2.93;2.70;;;17.20;99.90;;;;;;4980358;28;20620;-96
2021/08/19 23:56:20;;;;;;;4.90;3.30;;;16.90;99.90;;;;;;4978909;28;20639;-96
